Time;durP1;ratioP1;P1;durP2;ratioP2;P2;SDS_P1;SDS_P2;PMS_P1;PMS_P2;Temp;Humidity;BMP_temperature;BMP_pressure;BME280_temperature;BME280_humidity;BME280_pressure;Samples;Min_cycle;Max_cycle;Signal;HPM_P1;HPM_P2
2022/05/30 00:02:14;;;;;;;11.50;7.70;;;;;;;9.46;87.82;97241.90;106067;1277;24116;-87
2022/05/30 00:04:42;;;;;;;9.40;7.40;;;;;;;9.31;87.90;97246.27;106196;1276;22549;-86
2022/05/30 00:07:10;;;;;;;9.50;6.80;;;;;;;9.24;88.19;97255.83;106153;1277;26557;-89
2022/05/30 00:09:38;;;;;;;10.40;7.90;;;;;;;9.17;87.42;97259.23;106284;1277;22591;-90
2022/05/30 00:12:06;;;;;;;10.60;8.40;;;;;;;9.15;86.98;97260.34;106049;1277;24099;-90
2022/05/30 00:14:34;;;;;;;9.50;7.20;;;;;;;9.16;87.07;97257.37;106201;1277;22829;-90
2022/05/30 00:17:02;;;;;;;11.20;8.20;;;;;;;9.16;88.80;97253.94;106191;1277;22868;-88
2022/05/30 00:19:30;;;;;;;12.30;8.30;;;;;;;9.10;89.26;97256.70;106139;1276;22707;-90
2022/05/30 00:21:58;;;;;;;11.10;7.80;;;;;;;9.04;89.22;97258.30;106116;1277;24298;-87
2022/05/30 00:24:25;;;;;;;13.00;8.20;;;;;;;9.00;88.73;97259.83;106131;1277;22668;-89
2022/05/30 00:26:53;;;;;;;10.60;7.80;;;;;;;9.00;89.34;97255.42;105901;1277;22759;-87
2022/05/30 00:29:21;;;;;;;14.10;10.90;;;;;;;8.99;89.33;97255.61;106147;1277;22702;-89
2022/05/30 00:31:50;;;;;;;14.50;13.00;;;;;;;8.98;88.37;97255.59;106135;1277;22684;-88
2022/05/30 00:34:20;;;;;;;10.10;8.00;;;;;;;8.99;88.41;97253.92;106264;1277;22574;-91
2022/05/30 00:36:48;;;;;;;12.70;10.10;;;;;;;8.99;89.27;97253.35;106188;1275;22618;-89
2022/05/30 00:39:16;;;;;;;10.50;9.30;;;;;;;8.95;88.72;97251.23;106479;1277;25461;-90
2022/05/30 00:41:44;;;;;;;12.20;8.80;;;;;;;8.95;88.71;97250.10;106883;1277;22543;-92
2022/05/30 00:44:13;;;;;;;12.30;8.70;;;;;;;8.96;89.78;97245.73;107164;1277;25352;-85
2022/05/30 00:46:41;;;;;;;11.70;8.80;;;;;;;8.95;89.90;97244.02;106237;1277;22671;-89
2022/05/30 00:49:12;;;;;;;9.00;7.90;;;;;;;8.93;90.57;97232.63;106069;1277;23383;-88
2022/05/30 00:51:48;;;;;;;12.90;9.70;;;;;;;8.90;91.11;97231.30;106151;1277;24370;-89
2022/05/30 00:54:21;;;;;;;12.00;10.00;;;;;;;8.89;92.04;97224.04;106207;1277;22550;-88
2022/05/30 00:56:53;;;;;;;12.60;11.30;;;;;;;8.85;92.27;97216.33;106229;1277;25285;-89
2022/05/30 00:59:22;;;;;;;13.20;9.70;;;;;;;8.81;92.11;97213.40;106684;1277;22480;-91
2022/05/30 01:01:49;;;;;;;12.80;9.10;;;;;;;8.80;91.99;97221.05;106684;1277;22553;-88
2022/05/30 01:07:09;;;;;;;12.30;9.80;;;;;;;8.83;90.55;97223.99;107132;1277;22727;-88
2022/05/30 01:09:40;;;;;;;10.30;8.80;;;;;;;8.86;91.47;97226.13;106363;1276;22643;-88
2022/05/30 01:12:11;;;;;;;12.80;8.60;;;;;;;8.85;91.65;97212.08;106169;1275;22561;-91
2022/05/30 01:14:42;;;;;;;10.40;8.60;;;;;;;8.87;90.60;97215.42;106215;1277;24366;-90
2022/05/30 01:17:15;;;;;;;12.40;9.30;;;;;;;8.87;90.74;97209.77;106057;1277;22553;-92
2022/05/30 01:20:01;;;;;;;15.10;13.50;;;;;;;8.86;91.19;97205.39;106650;1277;24073;-86
2022/05/30 01:22:40;;;;;;;24.10;10.40;;;;;;;8.85;90.04;97206.96;106412;1277;22712;-89
2022/05/30 01:25:26;;;;;;;11.50;8.80;;;;;;;8.87;90.50;97206.17;105965;1277;22545;-89
2022/05/30 01:28:46;;;;;;;11.00;8.80;;;;;;;8.89;91.28;97195.55;106126;1276;22853;-90
2022/05/30 01:31:16;;;;;;;13.40;9.20;;;;;;;8.85;91.17;97197.14;106218;1277;22573;-90
2022/05/30 01:33:44;;;;;;;9.60;8.50;;;;;;;8.85;90.86;97199.89;106256;1277;23196;-90
2022/05/30 01:36:12;;;;;;;10.60;8.70;;;;;;;8.84;90.90;97205.32;106198;1277;24478;-90
2022/05/30 01:38:40;;;;;;;11.10;8.60;;;;;;;8.84;90.40;97207.97;106201;1277;25477;-90
2022/05/30 01:41:10;;;;;;;12.80;9.20;;;;;;;8.87;90.00;97209.45;106185;1277;22661;-88
2022/05/30 01:43:38;;;;;;;15.00;9.30;;;;;;;8.93;90.20;97209.52;105983;1275;24403;-90
2022/05/30 01:46:13;;;;;;;10.20;8.10;;;;;;;8.96;89.91;97207.85;106066;1277;22589;-88
2022/05/30 01:48:47;;;;;;;11.70;9.20;;;;;;;8.97;90.13;97207.49;105936;1277;24199;-89
2022/05/30 01:51:17;;;;;;;15.90;9.90;;;;;;;8.99;90.10;97210.45;105973;1277;22619;-88
2022/05/30 01:53:46;;;;;;;14.70;9.00;;;;;;;9.00;90.47;97211.79;106071;1277;22623;-87
2022/05/30 01:56:33;;;;;;;10.40;8.70;;;;;;;8.96;90.95;97215.11;106075;1277;22673;-89
2022/05/30 01:59:01;;;;;;;11.00;9.00;;;;;;;8.93;90.63;97213.00;106106;1277;25347;-88
2022/05/30 02:01:32;;;;;;;12.10;9.30;;;;;;;8.94;90.80;97212.20;106024;1277;22553;-89
2022/05/30 02:04:02;;;;;;;18.00;11.20;;;;;;;8.93;90.63;97211.84;106095;1277;22544;-89
2022/05/30 02:06:31;;;;;;;13.20;11.10;;;;;;;8.92;91.13;97213.38;106054;1277;22547;-90
2022/05/30 02:09:00;;;;;;;12.80;9.50;;;;;;;8.87;90.72;97211.16;106067;1277;25422;-88
2022/05/30 02:11:30;;;;;;;17.20;10.60;;;;;;;8.87;92.27;97211.16;106036;1277;22573;-88
2022/05/30 02:14:18;;;;;;;11.30;9.20;;;;;;;8.83;92.34;97210.67;106024;1277;22566;-87
2022/05/30 02:17:01;;;;;;;14.50;9.50;;;;;;;8.77;91.68;97210.92;106051;1277;22773;-86
2022/05/30 02:19:39;;;;;;;15.70;10.70;;;;;;;8.78;91.55;97209.06;106115;1275;25377;-88
2022/05/30 02:22:15;;;;;;;14.00;10.50;;;;;;;8.79;92.12;97209.95;106078;1277;25644;-89
2022/05/30 02:24:44;;;;;;;16.40;10.60;;;;;;;8.77;92.36;97207.46;106317;1277;22685;-88
2022/05/30 02:27:12;;;;;;;15.20;10.90;;;;;;;8.74;92.01;97208.92;106149;1277;25293;-87
2022/05/30 02:29:42;;;;;;;11.10;10.10;;;;;;;8.73;92.03;97209.14;106164;1275;22698;-88
2022/05/30 02:32:12;;;;;;;13.20;10.10;;;;;;;8.74;91.80;97209.15;106079;1277;22611;-90
2022/05/30 02:37:27;;;;;;;11.50;10.00;;;;;;;8.78;91.64;97201.92;106111;1277;23973;-89
2022/05/30 02:40:00;;;;;;;13.00;9.70;;;;;;;8.80;91.34;97198.01;106185;1277;22655;-90
2022/05/30 02:43:06;;;;;;;16.80;11.10;;;;;;;8.82;91.83;97203.28;105696;1277;25290;-91
2022/05/30 02:45:40;;;;;;;14.20;10.00;;;;;;;8.80;92.11;97210.40;106193;1277;25426;-90
2022/05/30 02:48:10;;;;;;;12.50;11.20;;;;;;;8.79;91.79;97210.80;106012;1277;22711;-90
2022/05/30 02:50:38;;;;;;;13.90;10.10;;;;;;;8.80;91.82;97213.44;106167;1277;22606;-90
2022/05/30 02:53:06;;;;;;;11.80;10.20;;;;;;;8.81;91.74;97211.20;106238;1277;22556;-89
2022/05/30 02:56:15;;;;;;;11.70;10.20;;;;;;;8.84;92.05;97205.45;106095;1277;24220;-89
2022/05/30 02:58:44;;;;;;;13.80;11.30;;;;;;;8.82;91.77;97204.98;106139;1277;23979;-88
2022/05/30 03:01:13;;;;;;;13.20;10.50;;;;;;;8.83;91.58;97210.18;106201;1277;22745;-88
2022/05/30 03:03:42;;;;;;;13.60;10.90;;;;;;;8.86;91.47;97209.16;106240;1277;24429;-90
2022/05/30 03:06:11;;;;;;;14.00;10.80;;;;;;;8.87;91.46;97209.52;106209;1277;25283;-86
2022/05/30 03:08:40;;;;;;;12.30;10.20;;;;;;;8.90;91.39;97215.67;105955;1276;24376;-89
2022/05/30 03:11:11;;;;;;;13.40;10.70;;;;;;;8.90;92.27;97216.48;106030;1277;25480;-89
2022/05/30 03:13:40;;;;;;;11.70;9.80;;;;;;;8.85;91.64;97219.48;106254;1276;22711;-85
2022/05/30 03:16:08;;;;;;;11.30;9.40;;;;;;;8.86;92.08;97216.52;106152;1277;22547;-87
2022/05/30 03:18:39;;;;;;;16.60;10.00;;;;;;;8.86;92.15;97217.70;106160;1277;22687;-87
2022/05/30 03:21:07;;;;;;;11.40;9.10;;;;;;;8.89;91.41;97218.13;106004;1277;22573;-87
2022/05/30 03:23:36;;;;;;;12.60;9.50;;;;;;;8.91;91.70;97219.52;106040;1277;25449;-86
2022/05/30 03:26:09;;;;;;;13.00;11.30;;;;;;;8.91;91.69;97219.89;106060;1277;22557;-89
2022/05/30 03:28:38;;;;;;;12.80;10.00;;;;;;;8.91;91.60;97223.22;105998;1277;26688;-85
2022/05/30 03:31:07;;;;;;;13.10;10.00;;;;;;;8.90;91.50;97226.19;106002;1277;22622;-85
2022/05/30 03:33:37;;;;;;;13.00;10.40;;;;;;;8.91;91.62;97232.23;106034;1277;22557;-88
2022/05/30 03:36:20;;;;;;;13.60;11.10;;;;;;;8.93;91.37;97235.41;106041;1277;22611;-88
2022/05/30 03:39:08;;;;;;;13.90;12.20;;;;;;;8.97;91.54;97237.31;106030;1277;22571;-89
2022/05/30 03:41:55;;;;;;;14.80;11.00;;;;;;;8.94;91.66;97239.00;106037;1277;22691;-90
2022/05/30 03:44:37;;;;;;;15.90;11.10;;;;;;;8.92;91.45;97238.78;106026;1277;22553;-88
2022/05/30 03:47:08;;;;;;;16.00;11.50;;;;;;;8.92;91.89;97241.27;106005;1277;25473;-90
2022/05/30 03:49:36;;;;;;;14.10;10.90;;;;;;;8.92;91.47;97239.96;106131;1277;22540;-89
2022/05/30 03:52:08;;;;;;;13.10;11.20;;;;;;;8.93;91.63;97242.46;106036;1277;22557;-88
2022/05/30 03:54:36;;;;;;;13.30;11.40;;;;;;;8.94;92.37;97240.89;105997;1277;22622;-91
2022/05/30 03:57:04;;;;;;;13.60;11.60;;;;;;;8.91;91.85;97246.59;106070;1277;22730;-90
2022/05/30 03:59:32;;;;;;;14.70;10.90;;;;;;;8.92;92.01;97247.06;106090;1277;24377;-88
2022/05/30 04:02:01;;;;;;;17.10;11.80;;;;;;;8.91;92.23;97242.66;106099;1277;22720;-89
2022/05/30 04:04:30;;;;;;;13.50;10.30;;;;;;;8.92;92.17;97245.87;106606;1277;22470;-87
2022/05/30 04:06:58;;;;;;;12.20;10.00;;;;;;;8.95;91.80;97240.48;106916;1277;25514;-87
2022/05/30 04:09:26;;;;;;;13.30;10.30;;;;;;;8.96;92.68;97239.30;106933;1277;22541;-87
2022/05/30 04:12:32;;;;;;;13.40;10.60;;;;;;;8.93;92.69;97241.30;107591;1277;23963;-88
2022/05/30 04:15:23;;;;;;;12.90;10.40;;;;;;;8.88;92.70;97238.91;106135;1277;25410;-89
2022/05/30 04:17:51;;;;;;;11.30;9.10;;;;;;;8.86;92.26;97239.79;106255;1277;22614;-88
2022/05/30 04:20:19;;;;;;;14.50;10.40;;;;;;;8.85;93.18;97236.77;106209;1277;24392;-89
2022/05/30 04:22:47;;;;;;;10.70;9.60;;;;;;;8.85;93.40;97237.91;105925;1278;23922;-86
2022/05/30 04:25:34;;;;;;;10.50;9.30;;;;;;;8.83;93.12;97236.98;106169;1277;22552;-86
2022/05/30 04:28:02;;;;;;;11.50;10.20;;;;;;;8.85;93.09;97237.28;106195;1277;22597;-86
2022/05/30 04:30:33;;;;;;;11.50;9.70;;;;;;;8.85;93.20;97232.98;106032;1277;25637;-85
2022/05/30 04:33:01;;;;;;;11.40;10.20;;;;;;;8.85;92.71;97231.80;106031;1277;22547;-83
2022/05/30 04:35:31;;;;;;;13.10;10.00;;;;;;;8.87;93.09;97231.27;106050;1277;23931;-84
2022/05/30 04:37:59;;;;;;;10.70;9.50;;;;;;;8.87;92.71;97231.64;105791;1277;22718;-85
2022/05/30 04:40:52;;;;;;;13.10;11.40;;;;;;;8.93;92.83;97231.72;106015;1277;22547;-85
2022/05/30 04:43:20;;;;;;;12.00;10.20;;;;;;;8.97;92.58;97227.33;106071;1277;22694;-87
2022/05/30 04:46:12;;;;;;;11.70;10.50;;;;;;;9.00;93.03;97228.50;106030;1276;22682;-83
2022/05/30 04:48:49;;;;;;;10.60;9.50;;;;;;;9.00;93.19;97224.95;106068;1276;22556;-86
2022/05/30 04:51:17;;;;;;;10.70;8.90;;;;;;;9.01;93.03;97226.07;106086;1277;23243;-84
2022/05/30 04:53:45;;;;;;;10.30;7.90;;;;;;;9.02;92.48;97229.20;105992;1277;25630;-85
2022/05/30 04:56:33;;;;;;;9.70;7.40;;;;;;;9.05;92.85;97228.11;106101;1277;23953;-84
2022/05/30 04:59:04;;;;;;;8.90;6.40;;;;;;;9.05;92.79;97225.27;106138;1277;22746;-85
2022/05/30 05:01:35;;;;;;;10.50;7.30;;;;;;;9.03;92.85;97226.00;106095;1277;22658;-90
2022/05/30 05:04:05;;;;;;;9.20;7.10;;;;;;;9.01;93.15;97225.41;106081;1277;22878;-90
2022/05/30 05:06:34;;;;;;;8.20;7.40;;;;;;;8.99;93.35;97223.67;106244;1277;22553;-91
2022/05/30 05:09:23;;;;;;;8.60;6.30;;;;;;;8.97;93.56;97232.16;106074;1277;22628;-81
2022/05/30 05:12:11;;;;;;;7.90;6.10;;;;;;;8.95;93.60;97239.20;105799;1277;24266;-82
2022/05/30 05:15:11;;;;;;;9.90;6.90;;;;;;;8.98;93.26;97236.44;106081;1277;24204;-84
2022/05/30 05:17:58;;;;;;;11.30;7.30;;;;;;;9.01;93.55;97238.43;106048;1277;23082;-82
2022/05/30 05:20:26;;;;;;;9.30;7.70;;;;;;;9.00;93.55;97240.81;106053;1277;24096;-83
2022/05/30 05:22:54;;;;;;;9.90;7.90;;;;;;;9.00;93.35;97243.06;106076;1277;23156;-81
2022/05/30 05:25:46;;;;;;;8.70;7.70;;;;;;;9.00;93.88;97245.16;106332;1277;25398;-81
2022/05/30 05:28:38;;;;;;;9.40;7.90;;;;;;;8.99;93.90;97247.77;106438;1277;22648;-84
2022/05/30 05:31:14;;;;;;;9.80;8.80;;;;;;;9.01;93.66;97246.35;106384;1277;22658;-85
2022/05/30 05:33:48;;;;;;;10.00;9.00;;;;;;;9.05;93.53;97251.00;106374;1277;22621;-81
2022/05/30 05:36:21;;;;;;;9.50;8.10;;;;;;;9.03;93.80;97256.84;106413;1277;22627;-82
2022/05/30 05:38:50;;;;;;;10.80;8.60;;;;;;;9.06;93.33;97255.66;106244;1277;22717;-84
2022/05/30 05:41:39;;;;;;;11.00;8.70;;;;;;;9.06;93.78;97257.96;106209;1277;22556;-83
2022/05/30 05:44:11;;;;;;;11.90;8.80;;;;;;;9.06;93.65;97260.27;106261;1277;22722;-83
2022/05/30 05:46:39;;;;;;;10.90;8.40;;;;;;;9.07;93.49;97262.63;106281;1280;23378;-84
2022/05/30 05:49:09;;;;;;;9.70;8.20;;;;;;;9.07;93.74;97258.23;106338;1278;22721;-83
2022/05/30 05:51:39;;;;;;;9.80;8.40;;;;;;;9.05;93.35;97264.23;106110;1280;24299;-84
2022/05/30 05:54:09;;;;;;;9.40;8.20;;;;;;;9.06;93.33;97269.95;105997;1280;22829;-83
2022/05/30 05:56:39;;;;;;;12.70;8.20;;;;;;;9.12;93.39;97271.06;106234;1280;22670;-84
2022/05/30 05:59:19;;;;;;;10.20;8.30;;;;;;;9.14;93.67;97268.48;106262;1277;22677;-84
2022/05/30 06:01:48;;;;;;;12.10;8.30;;;;;;;9.17;93.31;97267.98;106234;1277;22563;-83
2022/05/30 06:04:16;;;;;;;10.40;7.80;;;;;;;9.18;92.85;97275.55;106152;1277;23989;-83
2022/05/30 06:07:04;;;;;;;10.40;8.50;;;;;;;9.20;93.13;97274.86;106036;1277;25107;-84
2022/05/30 06:09:55;;;;;;;9.10;7.90;;;;;;;9.21;92.99;97277.54;106204;1277;22564;-84
2022/05/30 06:12:46;;;;;;;10.80;7.80;;;;;;;9.22;92.78;97278.08;106275;1277;22685;-83
2022/05/30 06:15:16;;;;;;;9.10;8.10;;;;;;;9.27;92.95;97275.44;106256;1278;23265;-83
2022/05/30 06:18:07;;;;;;;9.90;7.30;;;;;;;9.29;92.84;97279.05;106327;1277;25346;-84
2022/05/30 06:20:41;;;;;;;9.50;7.70;;;;;;;9.31;92.42;97274.91;106303;1277;22625;-84
2022/05/30 06:23:11;;;;;;;9.60;8.00;;;;;;;9.38;92.63;97275.75;106358;1277;22553;-83
2022/05/30 06:26:15;;;;;;;8.50;7.70;;;;;;;9.43;92.79;97275.92;105715;1278;25359;-83
2022/05/30 06:29:09;;;;;;;8.70;6.90;;;;;;;9.46;92.49;97285.58;106455;1277;22588;-84
2022/05/30 06:31:37;;;;;;;10.80;7.20;;;;;;;9.47;92.35;97283.25;106399;1277;22612;-82
2022/05/30 06:34:06;;;;;;;10.50;7.50;;;;;;;9.52;92.43;97292.05;106434;1277;22551;-82
2022/05/30 06:36:44;;;;;;;8.20;7.20;;;;;;;9.59;92.41;97293.67;106289;1277;22593;-83
2022/05/30 06:39:12;;;;;;;10.40;7.40;;;;;;;9.54;92.07;97294.09;106208;1277;23285;-83
2022/05/30 06:41:49;;;;;;;9.40;7.70;;;;;;;9.52;91.90;97293.54;106201;1277;22620;-81
2022/05/30 06:44:17;;;;;;;10.90;6.80;;;;;;;9.53;92.25;97292.95;106145;1278;24230;-81
2022/05/30 06:46:51;;;;;;;12.30;7.30;;;;;;;9.60;91.95;97296.34;106142;1277;22700;-81
2022/05/30 06:49:37;;;;;;;7.70;6.20;;;;;;;9.56;91.77;97302.11;106177;1279;23202;-81
2022/05/30 06:52:08;;;;;;;8.20;6.40;;;;;;;9.45;91.60;97305.98;106209;1278;22630;-81
2022/05/30 06:54:36;;;;;;;7.80;6.60;;;;;;;9.41;91.38;97313.55;106298;1280;25515;-81
2022/05/30 06:59:51;;;;;;;8.60;6.20;;;;;;;9.37;91.72;97322.84;106248;1280;24440;-80
2022/05/30 07:02:19;;;;;;;9.70;7.20;;;;;;;9.39;91.73;97322.27;106153;1277;22714;-80
2022/05/30 07:05:14;;;;;;;8.50;7.10;;;;;;;9.39;91.75;97321.88;105982;1277;22550;-80
2022/05/30 07:08:00;;;;;;;7.30;6.20;;;;;;;9.41;91.66;97326.42;106012;1277;22733;-81
2022/05/30 07:10:38;;;;;;;8.60;6.60;;;;;;;9.46;91.83;97329.37;106057;1277;24096;-80
2022/05/30 07:13:28;;;;;;;11.10;6.70;;;;;;;9.48;91.77;97327.66;106295;1277;22559;-80
2022/05/30 07:15:56;;;;;;;8.50;6.60;;;;;;;9.50;91.56;97328.36;106400;1277;25309;-81
2022/05/30 07:18:29;;;;;;;16.90;10.90;;;;;;;9.55;91.76;97329.88;106236;1280;22682;-81
2022/05/30 07:21:04;;;;;;;10.70;7.90;;;;;;;9.58;91.39;97331.60;106406;1278;22698;-80
2022/05/30 07:23:35;;;;;;;13.30;8.00;;;;;;;9.61;91.47;97330.67;106296;1277;22614;-82
2022/05/30 07:26:41;;;;;;;16.90;8.00;;;;;;;9.73;91.68;97332.00;105843;1278;22649;-80
2022/05/30 07:29:28;;;;;;;8.00;7.00;;;;;;;9.87;91.72;97330.25;106450;1277;23095;-81
2022/05/30 07:32:15;;;;;;;11.30;7.00;;;;;;;9.92;91.10;97328.36;106467;1277;22547;-81
2022/05/30 07:35:22;;;;;;;10.60;6.80;;;;;;;9.91;90.94;97330.85;105779;1278;24462;-81
2022/05/30 07:38:09;;;;;;;13.50;7.30;;;;;;;9.97;91.13;97336.20;106437;1277;25338;-82
2022/05/30 07:41:07;;;;;;;10.20;7.00;;;;;;;10.11;91.15;97333.80;106342;1277;22550;-82
2022/05/30 07:43:52;;;;;;;8.40;7.30;;;;;;;10.23;91.10;97338.27;106282;1277;22524;-82
2022/05/30 07:46:43;;;;;;;11.70;7.20;;;;;;;10.37;90.57;97339.85;106197;1277;22579;-81
2022/05/30 07:49:30;;;;;;;7.50;6.20;;;;;;;10.56;90.38;97337.50;106331;1277;25639;-81
2022/05/30 07:52:18;;;;;;;8.90;6.80;;;;;;;10.89;89.88;97342.66;106190;1277;22620;-83
2022/05/30 07:55:09;;;;;;;7.50;6.40;;;;;;;11.32;89.11;97347.48;106114;1277;23455;-79
2022/05/30 07:57:54;;;;;;;10.80;7.30;;;;;;;11.48;87.58;97356.06;105851;1277;22659;-81
2022/05/30 08:00:29;;;;;;;7.30;5.60;;;;;;;11.48;87.46;97357.04;106204;1277;25464;-81
2022/05/30 08:03:01;;;;;;;7.50;6.10;;;;;;;11.43;86.94;97360.63;106199;1278;25263;-81
2022/05/30 08:05:32;;;;;;;9.00;7.50;;;;;;;11.33;86.37;97362.88;106471;1277;22651;-81
2022/05/30 08:08:12;;;;;;;10.10;7.30;;;;;;;11.24;86.03;97368.61;106269;1277;25292;-81
2022/05/30 08:10:47;;;;;;;10.40;6.70;;;;;;;11.17;86.63;97366.11;106280;1277;25884;-80
2022/05/30 08:13:16;;;;;;;8.80;7.10;;;;;;;11.18;86.86;97366.89;106212;1277;22621;-80
2022/05/30 08:15:50;;;;;;;11.20;8.80;;;;;;;11.17;85.88;97369.83;106219;1278;25571;-82
2022/05/30 08:18:24;;;;;;;;;;;;;;;11.07;85.95;97371.24;106331;1277;24345;-81
2022/05/30 08:20:56;;;;;;;13.10;10.50;;;;;;;11.23;85.06;97373.42;106314;1277;22561;-81
2022/05/30 08:23:25;;;;;;;13.30;9.20;;;;;;;11.41;85.30;97374.33;106346;1278;22636;-82
2022/05/30 08:25:55;;;;;;;10.10;7.80;;;;;;;11.69;85.43;97372.17;106272;1277;22698;-81
2022/05/30 08:28:25;;;;;;;13.60;8.80;;;;;;;12.15;87.11;97371.38;105885;1280;23518;-80
2022/05/30 08:30:53;;;;;;;13.60;7.80;;;;;;;12.43;83.79;97375.41;105772;1278;22549;-82
2022/05/30 08:33:39;;;;;;;9.70;7.00;;;;;;;12.42;79.72;97380.42;106089;1277;22590;-80
2022/05/30 08:36:14;;;;;;;16.40;9.70;;;;;;;12.34;81.44;97378.52;106166;1277;22610;-81
2022/05/30 08:38:43;;;;;;;8.40;6.00;;;;;;;12.46;81.17;97380.85;105970;1278;22700;-80
2022/05/30 08:44:10;;;;;;;10.60;6.80;;;;;;;12.40;80.31;97380.52;106015;1280;22614;-80
2022/05/30 08:46:57;;;;;;;16.60;10.50;;;;;;;12.39;78.51;97382.91;106201;1277;22557;-79
2022/05/30 08:49:41;;;;;;;9.00;6.00;;;;;;;12.36;76.27;97387.57;106208;1277;22557;-81
2022/05/30 08:52:33;;;;;;;7.00;5.40;;;;;;;12.32;76.58;97388.17;106230;1277;26346;-82
2022/05/30 08:55:32;;;;;;;7.20;5.60;;;;;;;12.32;74.75;97401.65;106169;1277;25251;-81
2022/05/30 08:58:15;;;;;;;9.50;5.10;;;;;;;12.45;75.51;97398.88;106089;1277;22733;-82
2022/05/30 09:00:52;;;;;;;8.60;5.20;;;;;;;12.60;74.92;97400.83;106203;1277;22547;-82
2022/05/30 09:03:38;;;;;;;11.60;5.70;;;;;;;12.71;73.95;97398.56;106173;1277;24374;-81
2022/05/30 09:06:25;;;;;;;6.50;4.60;;;;;;;13.03;75.55;97394.83;106223;1277;22547;-82
2022/05/30 09:09:00;;;;;;;6.70;5.10;;;;;;;13.38;73.12;97391.07;106287;1277;22553;-82
2022/05/30 09:11:52;;;;;;;8.10;5.20;;;;;;;13.40;71.02;97401.81;106237;1277;22577;-82
2022/05/30 09:14:55;;;;;;;7.90;4.80;;;;;;;13.27;71.03;97401.80;106230;1277;22691;-82
2022/05/30 09:17:52;;;;;;;6.70;4.40;;;;;;;13.10;70.45;97405.49;105956;1280;24434;-82
2022/05/30 09:20:23;;;;;;;8.70;5.00;;;;;;;12.91;71.03;97412.47;105852;1281;22560;-84
2022/05/30 09:22:52;;;;;;;6.20;4.20;;;;;;;12.79;71.46;97412.72;106017;1280;25325;-83
2022/05/30 09:28:36;;;;;;;5.90;4.10;;;;;;;12.74;70.46;97417.70;105958;1280;22579;-83
2022/05/30 09:31:36;;;;;;;6.80;4.00;;;;;;;12.74;70.08;97417.77;106101;1280;22573;-83
2022/05/30 09:34:31;;;;;;;4.70;3.50;;;;;;;12.82;69.56;97412.04;106097;1280;24308;-83
2022/05/30 09:37:32;;;;;;;5.70;4.10;;;;;;;12.91;69.08;97417.70;106270;1280;24234;-82
2022/05/30 09:40:20;;;;;;;7.10;3.80;;;;;;;13.28;68.78;97417.44;106141;1280;22574;-83
2022/05/30 09:43:12;;;;;;;4.00;3.40;;;;;;;13.54;68.29;97420.15;106091;1280;22556;-83
2022/05/30 09:45:41;;;;;;;5.10;3.60;;;;;;;13.64;66.34;97420.67;105993;1280;25426;-82
2022/05/30 09:48:15;;;;;;;7.80;3.70;;;;;;;13.72;65.46;97429.77;106016;1278;22595;-82
2022/05/30 09:50:52;;;;;;;6.00;3.10;;;;;;;13.86;64.85;97438.63;106414;1277;25313;-83
2022/05/30 09:53:50;;;;;;;6.00;3.30;;;;;;;13.94;63.97;97442.42;106252;1277;22728;-83
2022/05/30 09:56:21;;;;;;;8.60;4.40;;;;;;;14.08;64.12;97438.29;106371;1277;22685;-82
2022/05/30 09:59:00;;;;;;;5.20;3.60;;;;;;;14.13;63.66;97442.55;106185;1278;25396;-82
2022/05/30 10:01:52;;;;;;;6.30;3.90;;;;;;;14.26;62.99;97436.43;106343;1277;25585;-83
2022/05/30 10:04:39;;;;;;;6.10;3.90;;;;;;;14.45;62.03;97436.24;106383;1278;24263;-84
2022/05/30 10:07:13;;;;;;;6.20;3.90;;;;;;;14.56;62.31;97435.64;106476;1277;22781;-84
2022/05/30 10:09:57;;;;;;;5.40;3.70;;;;;;;14.86;62.25;97434.06;106308;1277;25238;-81
2022/05/30 10:12:33;;;;;;;7.40;3.60;;;;;;;14.93;62.41;97439.20;106261;1277;23907;-82
2022/05/30 10:15:25;;;;;;;11.40;4.90;;;;;;;14.93;60.51;97433.84;106327;1277;25557;-83
2022/05/30 10:18:16;;;;;;;5.30;3.50;;;;;;;14.73;61.39;97445.26;106282;1278;22561;-83
2022/05/30 10:21:03;;;;;;;5.30;3.50;;;;;;;14.51;60.58;97445.98;106063;1277;206297;-82
2022/05/30 10:30:54;;;;;;;3.60;3.20;;;;;;;13.47;61.78;97454.10;106246;1278;22579;-82
2022/05/30 10:34:00;;;;;;;4.50;2.80;;;;;;;13.46;61.58;97447.76;106222;1277;23377;-83
2022/05/30 10:36:51;;;;;;;5.80;3.20;;;;;;;13.55;61.76;97454.89;106121;1280;24094;-85
2022/05/30 10:39:47;;;;;;;5.50;3.40;;;;;;;13.64;61.81;97449.20;106242;1278;22556;-83
2022/05/30 10:46:06;;;;;;;4.60;3.50;;;;;;;14.17;60.87;97445.94;106292;1278;24427;-86
2022/05/30 10:48:35;;;;;;;;;;;;;;;14.16;60.37;97441.48;106376;1280;22802;-87
2022/05/30 10:51:10;;;;;;;5.00;3.30;;;;;;;14.19;60.97;97443.33;106495;1277;22726;-85
2022/05/30 10:53:51;;;;;;;;;;;;;;;14.17;60.62;97444.41;106430;1277;22738;-84
2022/05/30 10:56:26;;;;;;;3.60;2.90;;;;;;;14.04;60.82;97446.96;106486;1277;25405;-86
2022/05/30 10:59:22;;;;;;;5.40;2.90;;;;;;;13.95;60.58;97453.05;106445;1277;25358;-85
2022/05/30 11:01:59;;;;;;;4.30;3.10;;;;;;;13.95;60.82;97453.60;106451;1278;22761;-86
2022/05/30 11:04:39;;;;;;;4.80;2.80;;;;;;;14.35;60.63;97454.32;106447;1277;25538;-86
2022/05/30 11:07:32;;;;;;;4.50;3.30;;;;;;;14.58;58.28;97445.58;106441;1277;23397;-84
2022/05/30 11:10:33;;;;;;;6.70;4.00;;;;;;;14.74;58.81;97446.67;106523;1278;22871;-83
2022/05/30 11:13:27;;;;;;;6.10;4.00;;;;;;;14.82;57.83;97447.67;106310;1278;24279;-86
2022/05/30 11:16:28;;;;;;;5.30;3.60;;;;;;;14.79;57.38;97450.73;106840;1277;22547;-84
2022/05/30 11:19:35;;;;;;;8.00;3.80;;;;;;;14.84;57.86;97449.05;107155;1276;22570;-84
2022/05/30 11:22:47;;;;;;;3.70;3.30;;;;;;;14.83;56.38;97448.52;106728;1277;25359;-87
2022/05/30 11:25:22;;;;;;;5.80;3.60;;;;;;;14.95;57.04;97452.10;106632;1278;24292;-86
2022/05/30 11:28:06;;;;;;;5.10;3.60;;;;;;;15.07;57.20;97455.42;106557;1278;22697;-85
2022/05/30 11:30:46;;;;;;;4.90;3.30;;;;;;;15.00;56.53;97452.95;106579;1277;22688;-87
2022/05/30 11:33:37;;;;;;;6.90;3.40;;;;;;;14.89;56.40;97456.34;106746;1278;24304;-88
2022/05/30 11:36:48;;;;;;;6.00;3.70;;;;;;;15.02;56.70;97464.80;106435;1277;24212;-87
2022/05/30 11:39:32;;;;;;;4.90;3.20;;;;;;;15.09;55.95;97460.46;105927;1277;25398;-88
2022/05/30 11:42:10;;;;;;;6.80;3.90;;;;;;;15.37;55.44;97460.95;106230;1277;22683;-88
2022/05/30 11:44:47;;;;;;;5.70;3.90;;;;;;;15.42;55.61;97458.03;106078;1281;22545;-87
2022/05/30 11:47:24;;;;;;;4.60;3.70;;;;;;;15.81;55.80;97452.21;106185;1277;23949;-88
2022/05/30 11:50:14;;;;;;;5.90;4.10;;;;;;;16.13;53.48;97454.09;106235;1278;23518;-88
2022/05/30 11:53:09;;;;;;;6.00;3.90;;;;;;;16.13;53.04;97458.33;106279;1277;24089;-88
2022/05/30 11:55:45;;;;;;;6.90;4.40;;;;;;;16.28;52.46;97453.46;106298;1277;22800;-88
2022/05/30 11:58:54;;;;;;;4.90;4.30;;;;;;;16.37;52.34;97452.24;106316;1277;22554;-87
2022/05/30 12:01:25;;;;;;;6.00;5.10;;;;;;;16.51;51.95;97453.95;106462;1277;22502;-87
2022/05/30 12:04:15;;;;;;;7.60;4.70;;;;;;;16.32;52.32;97453.83;106490;1277;22567;-88
2022/05/30 12:07:11;;;;;;;5.30;4.70;;;;;;;16.10;51.77;97460.48;106515;1277;23233;-88
2022/05/30 12:10:17;;;;;;;6.50;4.20;;;;;;;15.76;51.97;97467.98;106492;1277;22661;-88
2022/05/30 12:13:30;;;;;;;6.20;5.10;;;;;;;15.49;52.23;97473.11;106398;1277;22574;-89
2022/05/30 12:16:03;;;;;;;7.10;5.60;;;;;;;15.17;52.04;97477.55;105888;1284;23122;-86
2022/05/30 12:24:35;;;;;;;6.40;4.80;;;;;;;14.72;53.24;97483.30;105469;1286;25351;-88
2022/05/30 12:27:06;;;;;;;;;;;;;;;14.60;54.02;97477.65;105966;1284;22684;-92
2022/05/30 12:29:37;;;;;;;6.60;5.20;;;;;;;14.85;53.61;97478.67;105961;1284;22553;-90
2022/05/30 12:32:17;;;;;;;6.50;5.10;;;;;;;15.23;53.07;97475.51;105908;1283;22563;-88
2022/05/30 12:34:57;;;;;;;5.50;4.70;;;;;;;15.67;52.76;97471.83;105849;1285;24299;-91
2022/05/30 12:37:44;;;;;;;5.40;4.10;;;;;;;16.12;52.24;97465.83;105883;1284;22892;-89
2022/05/30 12:40:24;;;;;;;7.10;5.00;;;;;;;16.52;50.62;97466.78;105896;1284;22607;-87
2022/05/30 12:43:07;;;;;;;6.00;4.80;;;;;;;16.84;51.29;97460.55;105917;1283;22676;-90
2022/05/30 12:45:40;;;;;;;9.00;6.00;;;;;;;17.31;49.45;97459.05;105958;1284;22853;-89
2022/05/30 12:48:19;;;;;;;13.20;4.80;;;;;;;17.55;48.96;97463.34;105883;1284;22665;-88